Time;durP1;ratioP1;P1;durP2;ratioP2;P2;SDS_P1;SDS_P2;PMS_P1;PMS_P2;Temp;Humidity;BMP_temperature;BMP_pressure;BME280_temperature;BME280_humidity;BME280_pressure;Samples;Min_cycle;Max_cycle;Signal;HPM_P1;HPM_P2
2022/07/19 00:00:38;;;;;;;;;;;;;;;;;;2141529;27;20365;-44
2022/07/19 00:01:39;;;;;;;;;;;;;;;;;;2141631;27;19923;-44
2022/07/19 00:02:40;;;;;;;;;;;;;;;;;;2141750;27;19926;-44
2022/07/19 00:03:41;;;;;;;;;;;;;;;;;;2141673;27;20021;-44
2022/07/19 00:04:41;;;;;;;;;;;;;;;;;;2141534;27;20143;-43
2022/07/19 00:05:42;;;;;;;;;;;;;;;;;;2141491;27;20513;-44
2022/07/19 00:06:43;;;;;;;;;;;;;;;;;;2141584;27;20013;-44
2022/07/19 00:07:45;;;;;;;;;;;;;;;;;;2141629;27;20386;-43
2022/07/19 00:08:46;;;;;;;;;;;;;;;;;;2141354;27;19950;-42
2022/07/19 00:09:47;;;;;;;;;;;;;;;;;;2141410;27;19930;-42
2022/07/19 00:10:47;;;;;;;;;;;;;;;;;;2141596;27;20013;-42
2022/07/19 00:11:53;;;;;;;;;;;;;;;;;;2132946;27;19923;-41
2022/07/19 00:12:54;;;;;;;;;;;;;;;;;;2132994;27;19924;-42
2022/07/19 00:13:55;;;;;;;;;;;;;;;;;;2132919;27;20013;-41
2022/07/19 00:14:56;;;;;;;;;;;;;;;;;;2132811;27;20403;-42
2022/07/19 00:15:56;;;;;;;;;;;;;;;;;;2132936;27;19962;-42
2022/07/19 00:16:57;;;;;;;;;;;;;;;;;;2132796;27;20288;-42
2022/07/19 00:17:58;;;;;;;;;;;;;;;;;;2132941;27;20011;-42
2022/07/19 00:18:59;;;;;;;;;;;;;;;;;;2132879;27;20379;-42
2022/07/19 00:20:00;;;;;;;;;;;;;;;;;;2132900;27;19971;-42
2022/07/19 00:21:01;;;;;;;;;;;;;;;;;;2132638;27;20329;-42
2022/07/19 00:22:02;;;;;;;;;;;;;;;;;;2132825;27;20029;-42
2022/07/19 00:23:03;;;;;;;;;;;;;;;;;;2132824;27;20017;-42
2022/07/19 00:24:03;;;;;;;;;;;;;;;;;;2132685;27;19966;-43
2022/07/19 00:25:04;;;;;;;;;;;;;;;;;;2132797;27;19982;-42
2022/07/19 00:26:05;;;;;;;;;;;;;;;;;;2132671;27;19972;-42
2022/07/19 00:27:06;;;;;;;;;;;;;;;;;;2132907;27;19924;-42
2022/07/19 00:28:07;;;;;;;;;;;;;;;;;;2132800;27;19923;-43
2022/07/19 00:29:08;;;;;;;;;;;;;;;;;;2132742;27;19969;-43
2022/07/19 00:30:09;;;;;;;;;;;;;;;;;;2132740;27;19960;-42
2022/07/19 00:31:10;;;;;;;;;;;;;;;;;;2132839;27;20375;-43
2022/07/19 00:32:11;;;;;;;;;;;;;;;;;;2132690;27;19951;-43
2022/07/19 00:33:11;;;;;;;;;;;;;;;;;;2132882;27;19938;-43
2022/07/19 00:34:12;;;;;;;;;;;;;;;;;;2132768;27;20363;-42
2022/07/19 00:35:13;;;;;;;;;;;;;;;;;;2132648;27;20365;-42
2022/07/19 00:36:14;;;;;;;;;;;;;;;;;;2132769;27;19927;-43
2022/07/19 00:37:15;;;;;;;;;;;;;;;;;;2137990;27;19970;-43
2022/07/19 00:38:16;;;;;;;;;;;;;;;;;;2141393;27;19942;-42
2022/07/19 00:39:17;;;;;;;;;;;;;;;;;;2141292;27;19923;-42
2022/07/19 00:40:18;;;;;;;;;;;;;;;;;;2141407;27;19922;-43
2022/07/19 00:41:18;;;;;;;;;;;;;;;;;;2141422;27;20010;-42
2022/07/19 00:42:19;;;;;;;;;;;;;;;;;;2141400;27;20292;-42
2022/07/19 00:43:20;;;;;;;;;;;;;;;;;;2141446;27;19923;-42
2022/07/19 00:44:21;;;;;;;;;;;;;;;;;;2141277;27;19931;-44
2022/07/19 00:45:22;;;;;;;;;;;;;;;;;;2141473;27;20005;-44
2022/07/19 00:46:23;;;;;;;;;;;;;;;;;;2141160;27;19923;-44
2022/07/19 00:47:24;;;;;;;;;;;;;;;;;;2141220;27;20465;-44
2022/07/19 00:48:25;;;;;;;;;;;;;;;;;;2141170;27;19922;-45
2022/07/19 00:49:25;;;;;;;;;;;;;;;;;;2141302;27;19923;-45
2022/07/19 00:50:26;;;;;;;;;;;;;;;;;;2141285;27;19969;-45
2022/07/19 00:51:28;;;;;;;;;;;;;;;;;;2141201;27;20378;-45
2022/07/19 00:52:29;;;;;;;;;;;;;;;;;;2141272;27;20051;-45
2022/07/19 00:53:29;;;;;;;;;;;;;;;;;;2140967;27;19962;-45
2022/07/19 00:54:30;;;;;;;;;;;;;;;;;;2140089;27;19929;-45
2022/07/19 00:55:31;;;;;;;;;;;;;;;;;;2140426;27;19970;-45
2022/07/19 00:56:32;;;;;;;;;;;;;;;;;;2140393;27;19926;-45
2022/07/19 00:57:33;;;;;;;;;;;;;;;;;;2132525;27;19930;-46
2022/07/19 00:58:34;;;;;;;;;;;;;;;;;;2132700;27;19929;-45
2022/07/19 00:59:35;;;;;;;;;;;;;;;;;;2132528;27;20017;-45
2022/07/19 01:00:37;;;;;;;;;;;;;;;;;;2132654;27;19931;-45
2022/07/19 01:01:38;;;;;;;;;;;;;;;;;;2132453;27;19978;-46
2022/07/19 01:02:39;;;;;;;;;;;;;;;;;;2132621;27;19948;-44
2022/07/19 01:03:39;;;;;;;;;;;;;;;;;;2132604;27;20056;-45
2022/07/19 01:04:41;;;;;;;;;;;;;;;;;;2137250;27;19927;-45
2022/07/19 01:05:43;;;;;;;;;;;;;;;;;;2141260;27;19977;-45
2022/07/19 01:06:44;;;;;;;;;;;;;;;;;;2140985;27;20009;-46
2022/07/19 01:07:45;;;;;;;;;;;;;;;;;;2141085;27;20363;-44
2022/07/19 01:08:46;;;;;;;;;;;;;;;;;;2141050;27;19923;-45
2022/07/19 01:09:47;;;;;;;;;;;;;;;;;;2141090;27;20472;-45
2022/07/19 01:10:48;;;;;;;;;;;;;;;;;;2141294;27;19923;-45
2022/07/19 01:11:48;;;;;;;;;;;;;;;;;;2133179;27;20002;-45
2022/07/19 01:12:49;;;;;;;;;;;;;;;;;;2132480;27;19923;-44
2022/07/19 01:13:50;;;;;;;;;;;;;;;;;;2132728;27;19929;-45
2022/07/19 01:14:51;;;;;;;;;;;;;;;;;;2132423;27;19950;-46
2022/07/19 01:15:52;;;;;;;;;;;;;;;;;;2132418;27;19973;-45
2022/07/19 01:16:53;;;;;;;;;;;;;;;;;;2132448;27;19923;-44
2022/07/19 01:17:54;;;;;;;;;;;;;;;;;;2132300;27;20295;-45
2022/07/19 01:18:55;;;;;;;;;;;;;;;;;;2132397;27;20238;-45
2022/07/19 01:19:56;;;;;;;;;;;;;;;;;;2132611;27;20026;-45
2022/07/19 01:20:57;;;;;;;;;;;;;;;;;;2132545;27;19930;-45
2022/07/19 01:21:58;;;;;;;;;;;;;;;;;;2132448;27;19958;-45
2022/07/19 01:22:59;;;;;;;;;;;;;;;;;;2132522;27;19923;-46
2022/07/19 01:24:00;;;;;;;;;;;;;;;;;;2132317;27;20291;-45
2022/07/19 01:25:00;;;;;;;;;;;;;;;;;;2132548;27;19998;-45
2022/07/19 01:26:02;;;;;;;;;;;;;;;;;;2132517;27;19927;-47
2022/07/19 01:27:03;;;;;;;;;;;;;;;;;;2132226;27;20421;-44
2022/07/19 01:28:04;;;;;;;;;;;;;;;;;;2132482;27;19937;-45
2022/07/19 01:29:05;;;;;;;;;;;;;;;;;;2132295;27;20025;-43
2022/07/19 01:30:06;;;;;;;;;;;;;;;;;;2132230;27;19966;-44
2022/07/19 01:31:07;;;;;;;;;;;;;;;;;;2132295;27;19966;-45
2022/07/19 01:32:07;;;;;;;;;;;;;;;;;;2132448;27;19930;-45
2022/07/19 01:33:09;;;;;;;;;;;;;;;;;;2132193;27;20338;-44
2022/07/19 01:34:09;;;;;;;;;;;;;;;;;;2132419;27;20059;-44
2022/07/19 01:35:10;;;;;;;;;;;;;;;;;;2132566;27;19923;-45
2022/07/19 01:36:11;;;;;;;;;;;;;;;;;;2132252;27;19999;-45
2022/07/19 01:37:12;;;;;;;;;;;;;;;;;;2132267;27;20367;-45
2022/07/19 01:38:13;;;;;;;;;;;;;;;;;;2132228;27;19929;-45
2022/07/19 01:39:14;;;;;;;;;;;;;;;;;;2132352;27;19927;-45
2022/07/19 01:40:15;;;;;;;;;;;;;;;;;;2132259;27;19973;-45
2022/07/19 01:41:16;;;;;;;;;;;;;;;;;;2132287;27;19977;-45
2022/07/19 01:42:17;;;;;;;;;;;;;;;;;;2132123;27;20366;-45
2022/07/19 01:43:17;;;;;;;;;;;;;;;;;;2132339;27;20343;-45
2022/07/19 01:44:18;;;;;;;;;;;;;;;;;;2132197;27;19942;-45
2022/07/19 01:45:19;;;;;;;;;;;;;;;;;;2132291;27;19923;-45
2022/07/19 01:46:20;;;;;;;;;;;;;;;;;;2132200;27;19922;-46
2022/07/19 01:47:21;;;;;;;;;;;;;;;;;;2132181;27;20391;-45
2022/07/19 01:48:23;;;;;;;;;;;;;;;;;;2132215;27;19927;-44
2022/07/19 01:49:24;;;;;;;;;;;;;;;;;;2132232;27;20024;-45
2022/07/19 01:50:25;;;;;;;;;;;;;;;;;;2132196;27;20010;-44
2022/07/19 01:51:26;;;;;;;;;;;;;;;;;;2132003;27;20363;-44
2022/07/19 01:52:27;;;;;;;;;;;;;;;;;;2132289;27;19923;-43
2022/07/19 01:53:28;;;;;;;;;;;;;;;;;;2132344;27;20382;-44
2022/07/19 01:54:29;;;;;;;;;;;;;;;;;;2132119;27;20017;-43
2022/07/19 01:55:30;;;;;;;;;;;;;;;;;;2132195;27;20048;-44
2022/07/19 01:56:30;;;;;;;;;;;;;;;;;;2132235;27;20009;-44
2022/07/19 01:57:32;;;;;;;;;;;;;;;;;;2132198;27;19927;-45
2022/07/19 01:58:33;;;;;;;;;;;;;;;;;;2132027;27;20352;-43
2022/07/19 01:59:34;;;;;;;;;;;;;;;;;;2132117;27;19969;-43
2022/07/19 02:00:34;;;;;;;;;;;;;;;;;;2133742;27;19935;-43
2022/07/19 02:01:35;;;;;;;;;;;;;;;;;;2140788;27;20299;-45
2022/07/19 02:02:36;;;;;;;;;;;;;;;;;;2140810;27;19923;-44
2022/07/19 02:03:38;;;;;;;;;;;;;;;;;;2140818;27;19956;-44
2022/07/19 02:04:38;;;;;;;;;;;;;;;;;;2140829;27;20010;-44
2022/07/19 02:05:39;;;;;;;;;;;;;;;;;;2140453;27;19968;-44
2022/07/19 02:06:40;;;;;;;;;;;;;;;;;;2140125;27;19976;-44
2022/07/19 02:07:41;;;;;;;;;;;;;;;;;;2140697;27;20018;-44
2022/07/19 02:08:42;;;;;;;;;;;;;;;;;;2140671;27;20327;-45
2022/07/19 02:09:43;;;;;;;;;;;;;;;;;;2140711;27;19923;-46
2022/07/19 02:10:44;;;;;;;;;;;;;;;;;;2140824;27;20013;-45
2022/07/19 02:11:45;;;;;;;;;;;;;;;;;;2133299;27;19923;-44
2022/07/19 02:12:46;;;;;;;;;;;;;;;;;;2132013;27;19923;-43
2022/07/19 02:13:47;;;;;;;;;;;;;;;;;;2132050;27;19954;-44
2022/07/19 02:14:48;;;;;;;;;;;;;;;;;;2132363;27;20291;-45
2022/07/19 02:15:49;;;;;;;;;;;;;;;;;;2132166;27;19963;-44
2022/07/19 02:16:50;;;;;;;;;;;;;;;;;;2131989;27;20406;-45
2022/07/19 02:17:51;;;;;;;;;;;;;;;;;;2132226;27;19930;-45
2022/07/19 02:18:51;;;;;;;;;;;;;;;;;;2131911;27;20459;-45
2022/07/19 02:19:52;;;;;;;;;;;;;;;;;;2131954;27;20018;-45
2022/07/19 02:20:53;;;;;;;;;;;;;;;;;;2132237;27;20014;-43
2022/07/19 02:21:54;;;;;;;;;;;;;;;;;;2131967;27;20018;-44
2022/07/19 02:22:56;;;;;;;;;;;;;;;;;;2131949;27;19976;-44
2022/07/19 02:23:57;;;;;;;;;;;;;;;;;;2132310;27;19987;-46
2022/07/19 02:24:59;;;;;;;;;;;;;;;;;;2132074;27;19931;-43
2022/07/19 02:26:00;;;;;;;;;;;;;;;;;;2132460;27;19930;-44
2022/07/19 02:27:01;;;;;;;;;;;;;;;;;;2132143;27;20290;-45
2022/07/19 02:28:02;;;;;;;;;;;;;;;;;;2132018;27;19976;-45
2022/07/19 02:29:03;;;;;;;;;;;;;;;;;;2132086;27;20329;-45
2022/07/19 02:30:03;;;;;;;;;;;;;;;;;;2132118;27;20013;-44
2022/07/19 02:31:04;;;;;;;;;;;;;;;;;;2132333;27;19924;-47
2022/07/19 02:32:05;;;;;;;;;;;;;;;;;;2131917;27;19923;-45
2022/07/19 02:33:06;;;;;;;;;;;;;;;;;;2131880;27;19971;-46
2022/07/19 02:34:07;;;;;;;;;;;;;;;;;;2131932;27;20006;-45
2022/07/19 02:35:08;;;;;;;;;;;;;;;;;;2132141;27;19923;-43
2022/07/19 02:36:09;;;;;;;;;;;;;;;;;;2131864;27;19923;-43
2022/07/19 02:37:10;;;;;;;;;;;;;;;;;;2132408;27;19931;-45
2022/07/19 02:38:11;;;;;;;;;;;;;;;;;;2131924;27;20073;-45
2022/07/19 02:39:12;;;;;;;;;;;;;;;;;;2131862;27;19927;-43
2022/07/19 02:40:13;;;;;;;;;;;;;;;;;;2131847;27;20056;-43
2022/07/19 02:41:13;;;;;;;;;;;;;;;;;;2131764;27;20047;-44
2022/07/19 02:42:14;;;;;;;;;;;;;;;;;;2131924;27;19934;-44
2022/07/19 02:43:15;;;;;;;;;;;;;;;;;;2131855;27;20010;-44
2022/07/19 02:44:16;;;;;;;;;;;;;;;;;;2131897;27;20376;-44
2022/07/19 02:45:17;;;;;;;;;;;;;;;;;;2132109;27;19973;-43
2022/07/19 02:46:18;;;;;;;;;;;;;;;;;;2131882;27;19966;-44
2022/07/19 02:47:19;;;;;;;;;;;;;;;;;;2131879;27;20046;-43
2022/07/19 02:48:20;;;;;;;;;;;;;;;;;;2132119;27;20025;-44
2022/07/19 02:49:21;;;;;;;;;;;;;;;;;;2131693;27;19975;-43
2022/07/19 02:50:22;;;;;;;;;;;;;;;;;;2131784;27;19931;-43
2022/07/19 02:51:22;;;;;;;;;;;;;;;;;;2131779;27;19923;-43
2022/07/19 02:52:23;;;;;;;;;;;;;;;;;;2131723;27;20010;-43
2022/07/19 02:53:24;;;;;;;;;;;;;;;;;;2131939;27;20291;-44
2022/07/19 02:54:25;;;;;;;;;;;;;;;;;;2131892;27;19923;-44
2022/07/19 02:55:26;;;;;;;;;;;;;;;;;;2131866;27;20458;-45
2022/07/19 02:56:27;;;;;;;;;;;;;;;;;;2131655;27;19978;-44
2022/07/19 02:57:28;;;;;;;;;;;;;;;;;;2139009;27;19930;-44
2022/07/19 02:58:29;;;;;;;;;;;;;;;;;;2140583;27;20002;-44
2022/07/19 02:59:29;;;;;;;;;;;;;;;;;;2140418;27;19961;-44
2022/07/19 03:00:30;;;;;;;;;;;;;;;;;;2140364;27;19949;-44
2022/07/19 03:01:36;;;;;;;;;;;;;;;;;;2140207;27;19954;-44
2022/07/19 03:02:38;;;;;;;;;;;;;;;;;;2140493;27;19929;-45
2022/07/19 03:03:46;;;;;;;;;;;;;;;;;;2140285;27;20022;-45
2022/07/19 03:04:47;;;;;;;;;;;;;;;;;;2140330;27;19923;-45
2022/07/19 03:05:48;;;;;;;;;;;;;;;;;;2140344;27;20017;-44
2022/07/19 03:06:49;;;;;;;;;;;;;;;;;;2140198;27;20014;-45
2022/07/19 03:07:50;;;;;;;;;;;;;;;;;;2140270;27;20506;-45
2022/07/19 03:08:51;;;;;;;;;;;;;;;;;;2140326;27;19923;-46
2022/07/19 03:09:52;;;;;;;;;;;;;;;;;;2140321;27;20038;-45
2022/07/19 03:10:53;;;;;;;;;;;;;;;;;;2140591;27;19948;-45
2022/07/19 03:11:53;;;;;;;;;;;;;;;;;;2131608;27;19945;-45
2022/07/19 03:12:54;;;;;;;;;;;;;;;;;;2131719;27;19923;-45
2022/07/19 03:13:56;;;;;;;;;;;;;;;;;;2131769;27;20447;-45
2022/07/19 03:14:57;;;;;;;;;;;;;;;;;;2131875;27;19927;-43
2022/07/19 03:15:58;;;;;;;;;;;;;;;;;;2131500;27;20014;-44
2022/07/19 03:16:59;;;;;;;;;;;;;;;;;;2131601;27;19923;-45
2022/07/19 03:17:59;;;;;;;;;;;;;;;;;;2131939;27;19981;-44
2022/07/19 03:19:00;;;;;;;;;;;;;;;;;;2131847;27;19923;-45
2022/07/19 03:20:01;;;;;;;;;;;;;;;;;;2131489;27;19957;-45
2022/07/19 03:21:02;;;;;;;;;;;;;;;;;;2131845;27;19931;-43
2022/07/19 03:22:03;;;;;;;;;;;;;;;;;;2131621;27;19930;-44
2022/07/19 03:23:04;;;;;;;;;;;;;;;;;;2131545;27;19973;-43
2022/07/19 03:24:05;;;;;;;;;;;;;;;;;;2131511;27;20022;-44
2022/07/19 03:25:06;;;;;;;;;;;;;;;;;;2131719;27;19923;-43
2022/07/19 03:26:07;;;;;;;;;;;;;;;;;;2131711;27;19927;-44
2022/07/19 03:27:08;;;;;;;;;;;;;;;;;;2131593;27;19973;-45
2022/07/19 03:28:08;;;;;;;;;;;;;;;;;;2131547;27;20404;-45
2022/07/19 03:29:09;;;;;;;;;;;;;;;;;;2131674;27;19943;-44
2022/07/19 03:30:10;;;;;;;;;;;;;;;;;;2131608;27;20010;-43
2022/07/19 03:31:11;;;;;;;;;;;;;;;;;;2131517;27;20373;-43
2022/07/19 03:32:12;;;;;;;;;;;;;;;;;;2131663;27;19927;-43
2022/07/19 03:33:15;;;;;;;;;;;;;;;;;;2131679;27;19962;-43
2022/07/19 03:34:16;;;;;;;;;;;;;;;;;;2131539;27;19961;-43
2022/07/19 03:35:17;;;;;;;;;;;;;;;;;;2131520;27;20325;-43
2022/07/19 03:36:18;;;;;;;;;;;;;;;;;;2131487;27;20396;-43
2022/07/19 03:37:19;;;;;;;;;;;;;;;;;;2131695;27;20447;-46
2022/07/19 03:38:20;;;;;;;;;;;;;;;;;;2131643;27;19923;-45
2022/07/19 03:39:21;;;;;;;;;;;;;;;;;;2131484;27;19923;-45
2022/07/19 03:40:22;;;;;;;;;;;;;;;;;;2131660;27;19927;-45
2022/07/19 03:41:22;;;;;;;;;;;;;;;;;;2131373;27;19993;-45
2022/07/19 03:42:23;;;;;;;;;;;;;;;;;;2131413;27;20022;-46
2022/07/19 03:43:24;;;;;;;;;;;;;;;;;;2131845;27;20014;-45
2022/07/19 03:44:25;;;;;;;;;;;;;;;;;;2131472;27;19948;-45
2022/07/19 03:45:26;;;;;;;;;;;;;;;;;;2131596;27;19923;-45
2022/07/19 03:46:28;;;;;;;;;;;;;;;;;;2131422;27;19970;-46
2022/07/19 03:47:28;;;;;;;;;;;;;;;;;;2131507;27;19976;-45
2022/07/19 03:48:29;;;;;;;;;;;;;;;;;;2131499;27;20024;-45
2022/07/19 03:49:30;;;;;;;;;;;;;;;;;;2131862;27;20006;-46
2022/07/19 03:50:31;;;;;;;;;;;;;;;;;;2131612;27;19945;-43
2022/07/19 03:51:32;;;;;;;;;;;;;;;;;;2131559;27;20059;-46
2022/07/19 03:52:33;;;;;;;;;;;;;;;;;;2131424;27;19988;-44
2022/07/19 03:53:34;;;;;;;;;;;;;;;;;;2137497;27;20430;-45
2022/07/19 03:54:35;;;;;;;;;;;;;;;;;;2140041;27;19922;-45
2022/07/19 03:55:36;;;;;;;;;;;;;;;;;;2140156;27;19962;-45
2022/07/19 03:56:37;;;;;;;;;;;;;;;;;;2140075;27;19922;-45
2022/07/19 03:57:38;;;;;;;;;;;;;;;;;;2139975;27;19946;-45
2022/07/19 03:58:39;;;;;;;;;;;;;;;;;;2140278;27;19976;-43
2022/07/19 03:59:40;;;;;;;;;;;;;;;;;;2140224;27;19923;-46
2022/07/19 04:00:41;;;;;;;;;;;;;;;;;;2140169;27;20282;-45
2022/07/19 04:01:41;;;;;;;;;;;;;;;;;;2140004;27;19931;-45
2022/07/19 04:02:43;;;;;;;;;;;;;;;;;;2140080;27;20031;-44
2022/07/19 04:03:44;;;;;;;;;;;;;;;;;;2140105;27;19923;-45
2022/07/19 04:04:45;;;;;;;;;;;;;;;;;;2140023;27;19923;-45
2022/07/19 04:05:46;;;;;;;;;;;;;;;;;;2140034;27;20092;-46
2022/07/19 04:06:47;;;;;;;;;;;;;;;;;;2139849;27;19927;-46
2022/07/19 04:07:48;;;;;;;;;;;;;;;;;;2140116;27;19947;-45
2022/07/19 04:08:49;;;;;;;;;;;;;;;;;;2139994;27;19929;-46
2022/07/19 04:09:50;;;;;;;;;;;;;;;;;;2140060;27;19974;-45
2022/07/19 04:10:51;;;;;;;;;;;;;;;;;;2139960;27;19959;-45
2022/07/19 04:11:51;;;;;;;;;;;;;;;;;;2131770;27;19973;-46
2022/07/19 04:12:52;;;;;;;;;;;;;;;;;;2131374;27;20018;-47
2022/07/19 04:13:53;;;;;;;;;;;;;;;;;;2131475;27;19946;-46
2022/07/19 04:14:54;;;;;;;;;;;;;;;;;;2131317;27;19972;-45
2022/07/19 04:15:55;;;;;;;;;;;;;;;;;;2131639;27;20025;-44
2022/07/19 04:16:56;;;;;;;;;;;;;;;;;;2131429;27;20004;-44
2022/07/19 04:17:57;;;;;;;;;;;;;;;;;;2131411;27;19923;-45
2022/07/19 04:18:58;;;;;;;;;;;;;;;;;;2131322;27;19927;-45
2022/07/19 04:19:59;;;;;;;;;;;;;;;;;;2131281;27;19954;-45
2022/07/19 04:21:00;;;;;;;;;;;;;;;;;;2131458;27;19923;-46
2022/07/19 04:22:00;;;;;;;;;;;;;;;;;;2131294;27;19958;-46
2022/07/19 04:23:01;;;;;;;;;;;;;;;;;;2131486;27;20188;-46
2022/07/19 04:24:02;;;;;;;;;;;;;;;;;;2131209;27;20320;-46
2022/07/19 04:25:09;;;;;;;;;;;;;;;;;;2131233;27;20257;-45
2022/07/19 04:26:09;;;;;;;;;;;;;;;;;;2131095;27;20022;-45
2022/07/19 04:27:11;;;;;;;;;;;;;;;;;;2131522;27;19923;-46
2022/07/19 04:28:12;;;;;;;;;;;;;;;;;;2131629;27;20009;-45
2022/07/19 04:29:13;;;;;;;;;;;;;;;;;;2131552;27;19969;-45
2022/07/19 04:30:14;;;;;;;;;;;;;;;;;;2132783;27;19966;-46
2022/07/19 04:31:15;;;;;;;;;;;;;;;;;;2132698;27;20014;-45
2022/07/19 04:32:22;;;;;;;;;;;;;;;;;;2133090;27;19927;-44
2022/07/19 04:33:23;;;;;;;;;;;;;;;;;;2132733;27;19958;-44
2022/07/19 04:34:24;;;;;;;;;;;;;;;;;;2132847;27;20288;-45
2022/07/19 04:35:24;;;;;;;;;;;;;;;;;;2132976;27;19930;-46
2022/07/19 04:36:25;;;;;;;;;;;;;;;;;;2133019;27;20010;-44
2022/07/19 04:37:26;;;;;;;;;;;;;;;;;;2132644;27;20018;-43
2022/07/19 04:38:27;;;;;;;;;;;;;;;;;;2132700;27;20025;-44
2022/07/19 04:39:28;;;;;;;;;;;;;;;;;;2132992;27;19929;-44
2022/07/19 04:40:29;;;;;;;;;;;;;;;;;;2132582;27;19971;-44
2022/07/19 04:41:30;;;;;;;;;;;;;;;;;;2132853;27;20067;-43
2022/07/19 04:42:31;;;;;;;;;;;;;;;;;;2132614;27;20396;-43
2022/07/19 04:43:31;;;;;;;;;;;;;;;;;;2132976;27;19975;-44
2022/07/19 04:44:32;;;;;;;;;;;;;;;;;;2132524;27;19923;-43
2022/07/19 04:45:33;;;;;;;;;;;;;;;;;;2132783;27;19998;-44
2022/07/19 04:46:34;;;;;;;;;;;;;;;;;;2132457;27;19923;-44
2022/07/19 04:47:35;;;;;;;;;;;;;;;;;;2141550;27;19923;-44
2022/07/19 04:48:36;;;;;;;;;;;;;;;;;;2141281;27;19923;-45
2022/07/19 04:49:37;;;;;;;;;;;;;;;;;;2140938;27;19926;-44
2022/07/19 04:50:38;;;;;;;;;;;;;;;;;;2141255;27;19923;-45
2022/07/19 04:51:39;;;;;;;;;;;;;;;;;;2141060;27;20059;-44
2022/07/19 04:52:40;;;;;;;;;;;;;;;;;;2141601;27;19975;-45
2022/07/19 04:53:41;;;;;;;;;;;;;;;;;;2141206;27;19963;-45
2022/07/19 04:54:42;;;;;;;;;;;;;;;;;;2141415;27;20313;-43
2022/07/19 04:55:43;;;;;;;;;;;;;;;;;;2141124;27;19970;-43
2022/07/19 04:56:44;;;;;;;;;;;;;;;;;;2141183;27;20366;-43
2022/07/19 04:57:45;;;;;;;;;;;;;;;;;;2141306;27;19923;-44
2022/07/19 04:58:45;;;;;;;;;;;;;;;;;;2141161;27;19923;-45
2022/07/19 04:59:47;;;;;;;;;;;;;;;;;;2141190;27;19929;-44
2022/07/19 05:00:47;;;;;;;;;;;;;;;;;;2141000;27;20343;-43
2022/07/19 05:01:48;;;;;;;;;;;;;;;;;;2141068;27;19936;-43
2022/07/19 05:02:53;;;;;;;;;;;;;;;;;;2141142;27;20018;-44
2022/07/19 05:03:54;;;;;;;;;;;;;;;;;;2141436;27;19922;-45
2022/07/19 05:04:55;;;;;;;;;;;;;;;;;;2141279;27;19923;-45
2022/07/19 05:05:56;;;;;;;;;;;;;;;;;;2141126;27;19944;-46
2022/07/19 05:06:56;;;;;;;;;;;;;;;;;;2141420;27;20104;-43
2022/07/19 05:07:57;;;;;;;;;;;;;;;;;;2141151;27;19945;-45
2022/07/19 05:08:58;;;;;;;;;;;;;;;;;;2141538;27;20387;-45
2022/07/19 05:09:59;;;;;;;;;;;;;;;;;;2141192;27;19929;-46
2022/07/19 05:11:01;;;;;;;;;;;;;;;;;;2140130;27;19922;-45
2022/07/19 05:12:05;;;;;;;;;;;;;;;;;;2132844;27;20064;-45
2022/07/19 05:13:06;;;;;;;;;;;;;;;;;;2132550;27;20047;-45
2022/07/19 05:14:06;;;;;;;;;;;;;;;;;;2132387;27;20022;-46
2022/07/19 05:15:08;;;;;;;;;;;;;;;;;;2132699;27;19967;-46
2022/07/19 05:16:15;;;;;;;;;;;;;;;;;;2132347;27;19931;-46
2022/07/19 05:17:16;;;;;;;;;;;;;;;;;;2132517;27;19923;-45
2022/07/19 05:18:17;;;;;;;;;;;;;;;;;;2132589;27;20368;-45
2022/07/19 05:19:18;;;;;;;;;;;;;;;;;;2132408;27;19955;-46
2022/07/19 05:20:19;;;;;;;;;;;;;;;;;;2132556;27;19971;-43
2022/07/19 05:21:20;;;;;;;;;;;;;;;;;;2132337;27;19923;-44
2022/07/19 05:22:22;;;;;;;;;;;;;;;;;;2132629;27;20010;-44
2022/07/19 05:23:23;;;;;;;;;;;;;;;;;;2132410;27;20392;-43
2022/07/19 05:24:24;;;;;;;;;;;;;;;;;;2132424;27;20363;-43
2022/07/19 05:25:25;;;;;;;;;;;;;;;;;;2132202;27;19950;-44
2022/07/19 05:26:26;;;;;;;;;;;;;;;;;;2132306;27;20336;-44
2022/07/19 05:27:27;;;;;;;;;;;;;;;;;;2132426;27;19929;-43
2022/07/19 05:28:27;;;;;;;;;;;;;;;;;;2132567;27;20025;-44
2022/07/19 05:29:33;;;;;;;;;;;;;;;;;;2132408;27;19948;-43
2022/07/19 05:30:33;;;;;;;;;;;;;;;;;;2132538;27;19962;-45
2022/07/19 05:31:35;;;;;;;;;;;;;;;;;;2132340;27;19969;-44
2022/07/19 05:32:36;;;;;;;;;;;;;;;;;;2132421;27;19930;-43
2022/07/19 05:33:37;;;;;;;;;;;;;;;;;;2132378;27;20375;-43
2022/07/19 05:34:38;;;;;;;;;;;;;;;;;;2132527;27;19951;-45
2022/07/19 05:35:39;;;;;;;;;;;;;;;;;;2132847;27;20022;-45
2022/07/19 05:36:40;;;;;;;;;;;;;;;;;;2132232;27;19923;-45
2022/07/19 05:37:40;;;;;;;;;;;;;;;;;;2132488;27;20005;-45
2022/07/19 05:38:41;;;;;;;;;;;;;;;;;;2132673;27;20309;-45
2022/07/19 05:39:42;;;;;;;;;;;;;;;;;;2132610;27;19927;-43
2022/07/19 05:40:43;;;;;;;;;;;;;;;;;;2131406;27;19931;-44
2022/07/19 05:41:44;;;;;;;;;;;;;;;;;;2131826;27;19951;-44
2022/07/19 05:42:45;;;;;;;;;;;;;;;;;;2132314;27;20013;-44
2022/07/19 05:43:46;;;;;;;;;;;;;;;;;;2132481;27;19924;-45
2022/07/19 05:44:47;;;;;;;;;;;;;;;;;;2132155;27;20014;-45
2022/07/19 05:45:48;;;;;;;;;;;;;;;;;;2136051;27;20005;-44
2022/07/19 05:46:49;;;;;;;;;;;;;;;;;;2140555;27;19962;-43
2022/07/19 05:47:49;;;;;;;;;;;;;;;;;;2141067;27;19922;-45
2022/07/19 05:48:50;;;;;;;;;;;;;;;;;;2140971;27;20005;-46
2022/07/19 05:49:51;;;;;;;;;;;;;;;;;;2140742;27;19974;-45
2022/07/19 05:50:52;;;;;;;;;;;;;;;;;;2140954;27;19926;-45
2022/07/19 05:51:53;;;;;;;;;;;;;;;;;;2140971;27;19929;-45
2022/07/19 05:52:54;;;;;;;;;;;;;;;;;;2140854;27;20001;-45
2022/07/19 05:53:55;;;;;;;;;;;;;;;;;;2140915;27;19975;-46
2022/07/19 05:54:56;;;;;;;;;;;;;;;;;;2140865;27;19954;-46
2022/07/19 05:55:57;;;;;;;;;;;;;;;;;;2140756;27;20146;-46
2022/07/19 05:56:57;;;;;;;;;;;;;;;;;;2140989;27;20471;-45
2022/07/19 05:57:58;;;;;;;;;;;;;;;;;;2140765;27;19929;-45
2022/07/19 05:59:01;;;;;;;;;;;;;;;;;;2141356;27;19923;-43
2022/07/19 06:00:02;;;;;;;;;;;;;;;;;;2140764;27;20379;-44
2022/07/19 06:01:18;;;;;;;;;;;;;;;;;;2140629;27;19954;-43
2022/07/19 06:02:19;;;;;;;;;;;;;;;;;;2140739;27;19923;-44
2022/07/19 06:03:20;;;;;;;;;;;;;;;;;;2140941;27;20005;-44
2022/07/19 06:04:21;;;;;;;;;;;;;;;;;;2140888;27;19930;-45
2022/07/19 06:05:22;;;;;;;;;;;;;;;;;;2140555;27;19934;-44
2022/07/19 06:06:23;;;;;;;;;;;;;;;;;;2140754;27;20030;-44
2022/07/19 06:07:23;;;;;;;;;;;;;;;;;;2141080;27;20088;-46
2022/07/19 06:08:24;;;;;;;;;;;;;;;;;;2140925;27;19945;-45
2022/07/19 06:09:25;;;;;;;;;;;;;;;;;;2140734;27;20465;-44
2022/07/19 06:10:26;;;;;;;;;;;;;;;;;;2140700;27;19975;-45
2022/07/19 06:11:27;;;;;;;;;;;;;;;;;;2136213;27;19998;-45
2022/07/19 06:12:28;;;;;;;;;;;;;;;;;;2132124;27;19923;-44
2022/07/19 06:13:29;;;;;;;;;;;;;;;;;;2132095;27;19923;-44
2022/07/19 06:14:30;;;;;;;;;;;;;;;;;;2132198;27;19931;-45
2022/07/19 06:15:30;;;;;;;;;;;;;;;;;;2132161;27;19958;-44
2022/07/19 06:16:31;;;;;;;;;;;;;;;;;;2132033;27;20265;-44
2022/07/19 06:17:32;;;;;;;;;;;;;;;;;;2132074;27;19934;-44
2022/07/19 06:18:34;;;;;;;;;;;;;;;;;;2132377;27;19923;-46
2022/07/19 06:19:35;;;;;;;;;;;;;;;;;;2131952;27;20047;-45
2022/07/19 06:20:36;;;;;;;;;;;;;;;;;;2131883;27;20403;-46
2022/07/19 06:21:36;;;;;;;;;;;;;;;;;;2132287;27;20294;-47
2022/07/19 06:22:38;;;;;;;;;;;;;;;;;;2132392;27;19923;-46
2022/07/19 06:23:38;;;;;;;;;;;;;;;;;;2131936;27;19930;-46
2022/07/19 06:24:39;;;;;;;;;;;;;;;;;;2132023;27;19975;-46
2022/07/19 06:25:40;;;;;;;;;;;;;;;;;;2132081;27;19927;-45
2022/07/19 06:26:41;;;;;;;;;;;;;;;;;;2131916;27;19987;-44
2022/07/19 06:27:42;;;;;;;;;;;;;;;;;;2132056;27;19959;-44
2022/07/19 06:28:43;;;;;;;;;;;;;;;;;;2132135;27;20100;-44
2022/07/19 06:29:44;;;;;;;;;;;;;;;;;;2131948;27;19930;-44
2022/07/19 06:30:45;;;;;;;;;;;;;;;;;;2131881;27;20299;-47
2022/07/19 06:31:46;;;;;;;;;;;;;;;;;;2131792;27;19923;-44
2022/07/19 06:32:47;;;;;;;;;;;;;;;;;;2131778;27;20022;-44
2022/07/19 06:33:48;;;;;;;;;;;;;;;;;;2132036;27;19923;-44
2022/07/19 06:34:49;;;;;;;;;;;;;;;;;;2132051;27;19923;-46
2022/07/19 06:35:49;;;;;;;;;;;;;;;;;;2132217;27;19929;-45
2022/07/19 06:36:50;;;;;;;;;;;;;;;;;;2131860;27;20386;-46
2022/07/19 06:37:51;;;;;;;;;;;;;;;;;;2132199;27;19923;-47
2022/07/19 06:38:52;;;;;;;;;;;;;;;;;;2131851;27;19927;-47
2022/07/19 06:39:53;;;;;;;;;;;;;;;;;;2131769;27;20422;-46
2022/07/19 06:40:54;;;;;;;;;;;;;;;;;;2131993;27;20399;-46
2022/07/19 06:41:55;;;;;;;;;;;;;;;;;;2134126;27;19923;-46
2022/07/19 06:42:56;;;;;;;;;;;;;;;;;;2140471;27;20409;-46
2022/07/19 06:43:57;;;;;;;;;;;;;;;;;;2140453;27;19922;-47
2022/07/19 06:45:01;;;;;;;;;;;;;;;;;;2140380;27;20009;-47
2022/07/19 06:46:02;;;;;;;;;;;;;;;;;;2140450;27;20271;-46
2022/07/19 06:47:03;;;;;;;;;;;;;;;;;;2140447;27;19922;-46
2022/07/19 06:48:04;;;;;;;;;;;;;;;;;;2140631;27;20051;-46
2022/07/19 06:49:05;;;;;;;;;;;;;;;;;;2140779;27;19927;-46
2022/07/19 06:50:06;;;;;;;;;;;;;;;;;;2140433;27;19923;-46
2022/07/19 06:51:27;;;;;;;;;;;;;;;;;;2140668;27;20168;-44
2022/07/19 06:52:27;;;;;;;;;;;;;;;;;;2139890;27;19946;-45
2022/07/19 06:53:28;;;;;;;;;;;;;;;;;;2140477;27;20047;-45
2022/07/19 06:54:29;;;;;;;;;;;;;;;;;;2140558;27;20013;-45
2022/07/19 06:55:30;;;;;;;;;;;;;;;;;;2140369;27;19954;-44
2022/07/19 06:56:31;;;;;;;;;;;;;;;;;;2140283;27;20325;-45
2022/07/19 06:57:32;;;;;;;;;;;;;;;;;;2140373;27;20395;-45